Ash Fork, Arizona
Current Conditions -  °F | °C
As of 10:53 AM on Friday 31 Oct 2014 (Local Time) from KPRC Reporting Station
Few Clouds Few Clouds  
Wind Chill: 73°   Ceiling: Unl
Heat Index: 73°   Visibility: 10mi
Dew Point: 35°   Wind: 20mph
Humidity: 25%   Direction: 150°SSE
Pressure: 30.11"   Gusts: 26mph
Location:  35.23°N, 112.49°W
Report Text: KPRC 311753Z 15017G23KT 10SM FEW070 23/02 A3011 RMK AO2 SLP136 T02280017 10233 20094 58003
Loading
Personal Weather Stations






























Interactive Weather Map
Tropical Storm Tracking
New forecast layout! Learn more

10-Day Weather Forecast

Advertisements
Track Severe Weather on mobile